sensor_id;sensor_type;location;lat;lon;timestamp;pressure;altitude;pressure_sealevel;temperature;humidity
23643;BME280;11998;55.788;37.572;2022-12-01T00:00:21;101685.47;;;-7.71;100.00
23643;BME280;11998;55.788;37.572;2022-12-01T00:01:21;101687.91;;;-7.73;100.00
23643;BME280;11998;55.788;37.572;2022-12-01T00:02:22;101688.81;;;-7.72;100.00
23643;BME280;11998;55.788;37.572;2022-12-01T00:03:22;101689.69;;;-7.72;100.00
23643;BME280;11998;55.788;37.572;2022-12-01T00:04:23;101695.75;;;-7.71;100.00
23643;BME280;11998;55.788;37.572;2022-12-01T00:05:23;101693.47;;;-7.68;100.00
23643;BME280;11998;55.788;37.572;2022-12-01T00:06:24;101696.53;;;-7.62;100.00
23643;BME280;11998;55.788;37.572;2022-12-01T00:07:24;101691.94;;;-7.56;100.00
23643;BME280;11998;55.788;37.572;2022-12-01T00:08:26;101693.47;;;-7.58;100.00
23643;BME280;11998;55.788;37.572;2022-12-01T00:09:26;101693.75;;;-7.55;100.00
23643;BME280;11998;55.788;37.572;2022-12-01T00:10:47;101688.84;;;-7.52;100.00
23643;BME280;11998;55.788;37.572;2022-12-01T00:11:48;101688.06;;;-7.51;100.00
23643;BME280;11998;55.788;37.572;2022-12-01T00:12:48;101691.56;;;-7.50;100.00
23643;BME280;11998;55.788;37.572;2022-12-01T00:13:49;101683.44;;;-7.55;100.00
23643;BME280;11998;55.788;37.572;2022-12-01T00:14:49;101689.50;;;-7.54;100.00
23643;BME280;11998;55.788;37.572;2022-12-01T00:15:54;101692.19;;;-7.53;100.00
23643;BME280;11998;55.788;37.572;2022-12-01T00:16:54;101688.84;;;-7.52;100.00
23643;BME280;11998;55.788;37.572;2022-12-01T00:17:55;101687.69;;;-7.55;100.00
23643;BME280;11998;55.788;37.572;2022-12-01T00:18:57;101694.00;;;-7.52;100.00
23643;BME280;11998;55.788;37.572;2022-12-01T00:19:57;101696.56;;;-7.52;100.00
23643;BME280;11998;55.788;37.572;2022-12-01T00:20:58;101694.00;;;-7.52;100.00
23643;BME280;11998;55.788;37.572;2022-12-01T00:21:58;101694.78;;;-7.53;100.00
23643;BME280;11998;55.788;37.572;2022-12-01T00:22:59;101690.66;;;-7.51;100.00
23643;BME280;11998;55.788;37.572;2022-12-01T00:24:00;101688.84;;;-7.52;100.00
23643;BME280;11998;55.788;37.572;2022-12-01T00:25:00;101690.41;;;-7.54;100.00
23643;BME280;11998;55.788;37.572;2022-12-01T00:26:02;101687.31;;;-7.50;100.00
23643;BME280;11998;55.788;37.572;2022-12-01T00:27:03;101685.50;;;-7.51;100.00
23643;BME280;11998;55.788;37.572;2022-12-01T00:28:04;101689.88;;;-7.50;100.00
23643;BME280;11998;55.788;37.572;2022-12-01T00:29:05;101687.31;;;-7.50;100.00
23643;BME280;11998;55.788;37.572;2022-12-01T00:30:08;101681.91;;;-7.53;100.00
23643;BME280;11998;55.788;37.572;2022-12-01T00:31:10;101681.50;;;-7.47;100.00
23643;BME280;11998;55.788;37.572;2022-12-01T00:32:11;101687.31;;;-7.50;100.00
23643;BME280;11998;55.788;37.572;2022-12-01T00:33:12;101685.91;;;-7.56;100.00
23643;BME280;11998;55.788;37.572;2022-12-01T00:34:21;101692.44;;;-7.50;100.00
23643;BME280;11998;55.788;37.572;2022-12-01T00:35:22;101687.06;;;-7.43;100.00
23643;BME280;11998;55.788;37.572;2022-12-01T00:36:23;101687.84;;;-7.44;100.00
23643;BME280;11998;55.788;37.572;2022-12-01T00:37:24;101685.75;;;-7.48;100.00
23643;BME280;11998;55.788;37.572;2022-12-01T00:38:24;101689.22;;;-7.47;100.00
23643;BME280;11998;55.788;37.572;2022-12-01T00:39:25;101686.78;;;-7.46;100.00
23643;BME280;11998;55.788;37.572;2022-12-01T00:40:26;101684.50;;;-7.43;100.00
23643;BME280;11998;55.788;37.572;2022-12-01T00:41:26;101688.88;;;-7.42;100.00
23643;BME280;11998;55.788;37.572;2022-12-01T00:42:27;101683.84;;;-7.40;100.00
23643;BME280;11998;55.788;37.572;2022-12-01T00:43:27;101691.69;;;-7.38;100.00
23643;BME280;11998;55.788;37.572;2022-12-01T00:44:28;101690.41;;;-7.44;100.00
23643;BME280;11998;55.788;37.572;2022-12-01T00:45:28;101679.59;;;-7.40;100.00
23643;BME280;11998;55.788;37.572;2022-12-01T00:46:29;101691.44;;;-7.42;100.00
23643;BME280;11998;55.788;37.572;2022-12-01T00:47:29;101684.75;;;-7.40;100.00
23643;BME280;11998;55.788;37.572;2022-12-01T00:48:30;101681.41;;;-7.38;100.00
23643;BME280;11998;55.788;37.572;2022-12-01T00:49:30;101679.06;;;-7.35;100.00
23643;BME280;11998;55.788;37.572;2022-12-01T00:50:31;101680.75;;;-7.36;100.00
23643;BME280;11998;55.788;37.572;2022-12-01T00:51:32;101678.31;;;-7.34;100.00
23643;BME280;11998;55.788;37.572;2022-12-01T00:52:32;101674.97;;;-7.33;100.00
23643;BME280;11998;55.788;37.572;2022-12-01T00:53:33;101680.09;;;-7.33;100.00
23643;BME280;11998;55.788;37.572;2022-12-01T00:54:33;101681.16;;;-7.31;100.00
23643;BME280;11998;55.788;37.572;2022-12-01T00:55:34;101679.34;;;-7.32;100.00
23643;BME280;11998;55.788;37.572;2022-12-01T00:56:34;101682.69;;;-7.33;100.00
23643;BME280;11998;55.788;37.572;2022-12-01T00:57:35;101683.44;;;-7.34;100.00
23643;BME280;11998;55.788;37.572;2022-12-01T00:58:35;101680.09;;;-7.33;100.00
23643;BME280;11998;55.788;37.572;2022-12-01T00:59:36;101683.44;;;-7.34;100.00
23643;BME280;11998;55.788;37.572;2022-12-01T01:00:36;101676.75;;;-7.32;100.00
23643;BME280;11998;55.788;37.572;2022-12-01T01:01:38;101677.81;;;-7.30;100.00
23643;BME280;11998;55.788;37.572;2022-12-01T01:02:38;101677.66;;;-7.32;100.00
23643;BME280;11998;55.788;37.572;2022-12-01T01:03:39;101676.25;;;-7.28;100.00
23643;BME280;11998;55.788;37.572;2022-12-01T01:04:40;101673.44;;;-7.31;100.00
23643;BME280;11998;55.788;37.572;2022-12-01T01:05:41;101675.25;;;-7.30;100.00
23643;BME280;11998;55.788;37.572;2022-12-01T01:06:42;101671.88;;;-7.29;100.00
23643;BME280;11998;55.788;37.572;2022-12-01T01:07:42;101669.81;;;-7.33;100.00
23643;BME280;11998;55.788;37.572;2022-12-01T01:08:43;101670.84;;;-7.42;100.00
23643;BME280;11998;55.788;37.572;2022-12-01T01:09:43;101670.84;;;-7.42;100.00
23643;BME280;11998;55.788;37.572;2022-12-01T01:10:46;101674.19;;;-7.43;100.00
23643;BME280;11998;55.788;37.572;2022-12-01T01:11:47;101668.41;;;-7.40;100.00
23643;BME280;11998;55.788;37.572;2022-12-01T01:12:47;101674.03;;;-7.44;100.00
23643;BME280;11998;55.788;37.572;2022-12-01T01:13:48;101675.09;;;-7.42;100.00
23643;BME280;11998;55.788;37.572;2022-12-01T01:14:48;101671.47;;;-7.44;100.00
23643;BME280;11998;55.788;37.572;2022-12-01T01:16:07;101672.66;;;-7.41;100.00
23643;BME280;11998;55.788;37.572;2022-12-01T01:17:09;101668.78;;;-7.46;100.00
23643;BME280;11998;55.788;37.572;2022-12-01T01:18:10;101675.47;;;-7.48;100.00
23643;BME280;11998;55.788;37.572;2022-12-01T01:19:11;101668.78;;;-7.46;100.00
23643;BME280;11998;55.788;37.572;2022-12-01T01:20:12;101671.47;;;-7.44;100.00
23643;BME280;11998;55.788;37.572;2022-12-01T01:21:15;101674.97;;;-7.44;100.00
23643;BME280;11998;55.788;37.572;2022-12-01T01:22:16;101676.00;;;-7.42;100.00
23643;BME280;11998;55.788;37.572;2022-12-01T01:23:16;101674.19;;;-7.43;100.00
23643;BME280;11998;55.788;37.572;2022-12-01T01:24:17;101676.91;;;-7.41;100.00
23643;BME280;11998;55.788;37.572;2022-12-01T01:25:17;101681.63;;;-7.46;100.00
23643;BME280;11998;55.788;37.572;2022-12-01T01:26:21;101683.56;;;-7.53;100.00
23643;BME280;11998;55.788;37.572;2022-12-01T01:27:22;101676.75;;;-7.53;100.00
23643;BME280;11998;55.788;37.572;2022-12-01T01:28:22;101687.53;;;-7.57;100.00
23643;BME280;11998;55.788;37.572;2022-12-01T01:29:23;101678.91;;;-7.57;100.00
23643;BME280;11998;55.788;37.572;2022-12-01T01:30:23;101680.09;;;-7.64;100.00
23643;BME280;11998;55.788;37.572;2022-12-01T01:31:24;101683.66;;;-7.72;100.00
23643;BME280;11998;55.788;37.572;2022-12-01T01:32:25;101675.56;;;-7.77;100.00
23643;BME280;11998;55.788;37.572;2022-12-01T01:33:26;101681.06;;;-7.82;100.00
23643;BME280;11998;55.788;37.572;2022-12-01T01:34:26;101675.91;;;-7.82;100.00
23643;BME280;11998;55.788;37.572;2022-12-01T01:35:27;101678.66;;;-7.81;100.00
23643;BME280;11998;55.788;37.572;2022-12-01T01:36:27;101675.91;;;-7.82;100.00
23643;BME280;11998;55.788;37.572;2022-12-01T01:37:28;101670.53;;;-7.75;100.00
23643;BME280;11998;55.788;37.572;2022-12-01T01:38:29;101669.63;;;-7.76;100.00
23643;BME280;11998;55.788;37.572;2022-12-01T01:39:30;101678.50;;;-7.72;100.00
23643;BME280;11998;55.788;37.572;2022-12-01T01:40:30;101673.91;;;-7.66;100.00
23643;BME280;11998;55.788;37.572;2022-12-01T01:41:31;101676.97;;;-7.70;100.00
23643;BME280;11998;55.788;37.572;2022-12-01T01:42:31;101676.84;;;-7.72;100.00
23643;BME280;11998;55.788;37.572;2022-12-01T01:44:49;101678.00;;;-7.78;100.00
23643;BME280;11998;55.788;37.572;2022-12-01T01:45:50;101671.06;;;-7.79;100.00
23643;BME280;11998;55.788;37.572;2022-12-01T01:46:50;101665.91;;;-7.79;100.00
23643;BME280;11998;55.788;37.572;2022-12-01T01:47:52;101659.75;;;-7.81;100.00
23643;BME280;11998;55.788;37.572;2022-12-01T01:49:06;101664.13;;;-7.80;100.00
23643;BME280;11998;55.788;37.572;2022-12-01T01:50:10;101659.97;;;-7.88;100.00
23643;BME280;11998;55.788;37.572;2022-12-01T01:51:13;101658.28;;;-7.88;100.00
23643;BME280;11998;55.788;37.572;2022-12-01T01:52:15;101660.22;;;-7.85;100.00
23643;BME280;11998;55.788;37.572;2022-12-01T01:53:16;101661.25;;;-7.83;100.00
23643;BME280;11998;55.788;37.572;2022-12-01T01:54:20;101656.41;;;-7.80;100.00
23643;BME280;11998;55.788;37.572;2022-12-01T01:55:21;101667.47;;;-7.81;100.00
23643;BME280;11998;55.788;37.572;2022-12-01T01:56:22;101665.50;;;-7.84;100.00
23643;BME280;11998;55.788;37.572;2022-12-01T01:57:26;101666.81;;;-7.79;100.00
23643;BME280;11998;55.788;37.572;2022-12-01T01:58:28;101672.47;;;-7.73;100.00
23643;BME280;11998;55.788;37.572;2022-12-01T01:59:35;101674.69;;;-7.67;100.00
23643;BME280;11998;55.788;37.572;2022-12-01T02:00:38;101662.06;;;-7.64;100.00
23643;BME280;11998;55.788;37.572;2022-12-01T02:01:40;101664.53;;;-7.65;100.00
23643;BME280;11998;55.788;37.572;2022-12-01T02:02:42;101669.28;;;-7.60;100.00
23643;BME280;11998;55.788;37.572;2022-12-01T02:03:44;101666.22;;;-7.56;100.00
23643;BME280;11998;55.788;37.572;2022-12-01T02:04:47;101679.06;;;-7.66;100.00
23643;BME280;11998;55.788;37.572;2022-12-01T02:05:48;101677.25;;;-7.67;100.00
23643;BME280;11998;55.788;37.572;2022-12-01T02:06:48;101676.75;;;-7.63;100.00
23643;BME280;11998;55.788;37.572;2022-12-01T02:07:50;101679.81;;;-7.57;100.00
23643;BME280;11998;55.788;37.572;2022-12-01T02:08:51;101673.38;;;-7.62;100.00
23643;BME280;11998;55.788;37.572;2022-12-01T02:09:53;101676.22;;;-7.59;100.00
23643;BME280;11998;55.788;37.572;2022-12-01T02:16:06;101677.25;;;-7.67;100.00
23643;BME280;11998;55.788;37.572;2022-12-01T02:18:49;101678.16;;;-7.66;100.00
23643;BME280;11998;55.788;37.572;2022-12-01T02:21:28;101677.25;;;-7.67;100.00
23643;BME280;11998;55.788;37.572;2022-12-01T02:25:19;101678.75;;;-7.69;100.00
23643;BME280;11998;55.788;37.572;2022-12-01T02:30:48;101675.16;;;-7.71;100.00
23643;BME280;11998;55.788;37.572;2022-12-01T02:32:01;101669.78;;;-7.74;100.00
23643;BME280;11998;55.788;37.572;2022-12-01T02:33:13;101678.13;;;-7.77;100.00
23643;BME280;11998;55.788;37.572;2022-12-01T02:34:33;101677.22;;;-7.77;100.00
23643;BME280;11998;55.788;37.572;2022-12-01T02:36:53;101667.56;;;-7.70;100.00
23643;BME280;11998;55.788;37.572;2022-12-01T02:39:41;101672.09;;;-7.67;100.00
23643;BME280;11998;55.788;37.572;2022-12-01T02:41:53;101673.00;;;-7.66;100.00
23643;BME280;11998;55.788;37.572;2022-12-01T02:43:26;101671.22;;;-7.67;100.00
23643;BME280;11998;55.788;37.572;2022-12-01T02:44:41;101673.38;;;-7.72;100.00
23643;BME280;11998;55.788;37.572;2022-12-01T02:45:54;101666.41;;;-7.73;100.00
23643;BME280;11998;55.788;37.572;2022-12-01T02:47:10;101674.91;;;-7.74;100.00
23643;BME280;11998;55.788;37.572;2022-12-01T02:48:19;101666.28;;;-7.75;100.00
23643;BME280;11998;55.788;37.572;2022-12-01T02:49:29;101664.47;;;-7.86;100.00
23643;BME280;11998;55.788;37.572;2022-12-01T02:50:34;101670.50;;;-7.85;100.00
23643;BME280;11998;55.788;37.572;2022-12-01T02:51:36;101662.31;;;-7.81;100.00
23643;BME280;11998;55.788;37.572;2022-12-01T02:52:39;101658.41;;;-7.86;100.00
23643;BME280;11998;55.788;37.572;2022-12-01T02:53:42;101664.72;;;-7.83;100.00
23643;BME280;11998;55.788;37.572;2022-12-01T02:54:44;101662.56;;;-7.78;100.00
23643;BME280;11998;55.788;37.572;2022-12-01T02:55:54;101667.72;;;-7.78;100.00
23643;BME280;11998;55.788;37.572;2022-12-01T02:56:54;101663.72;;;-7.75;100.00
23643;BME280;11998;55.788;37.572;2022-12-01T02:57:55;101662.56;;;-7.78;100.00
23643;BME280;11998;55.788;37.572;2022-12-01T02:58:56;101659.22;;;-7.77;100.00
23643;BME280;11998;55.788;37.572;2022-12-01T02:59:57;101664.59;;;-7.84;100.00
23643;BME280;11998;55.788;37.572;2022-12-01T03:03:13;101660.22;;;-7.85;100.00
23643;BME280;11998;55.788;37.572;2022-12-01T03:05:39;101660.47;;;-7.92;100.00
23643;BME280;11998;55.788;37.572;2022-12-01T03:08:25;101656.13;;;-7.93;100.00
23643;BME280;11998;55.788;37.572;2022-12-01T03:10:55;101658.69;;;-7.93;100.00
23643;BME280;11998;55.788;37.572;2022-12-01T03:16:08;101656.94;;;-8.13;100.00
23643;BME280;11998;55.788;37.572;2022-12-01T03:17:18;101659.50;;;-8.13;100.00
23643;BME280;11998;55.788;37.572;2022-12-01T03:19:50;101662.34;;;-8.10;100.00
23643;BME280;11998;55.788;37.572;2022-12-01T03:21:12;101653.59;;;-8.12;100.00
23643;BME280;11998;55.788;37.572;2022-12-01T03:22:36;101658.09;;;-8.10;100.00
23643;BME280;11998;55.788;37.572;2022-12-01T03:23:42;101657.31;;;-8.09;100.00
23643;BME280;11998;55.788;37.572;2022-12-01T03:24:46;101660.19;;;-8.06;100.00
23643;BME280;11998;55.788;37.572;2022-12-01T03:25:48;101658.66;;;-8.04;100.00
23643;BME280;11998;55.788;37.572;2022-12-01T03:26:54;101661.44;;;-8.11;100.00
23643;BME280;11998;55.788;37.572;2022-12-01T03:27:57;101651.16;;;-8.11;100.00
23643;BME280;11998;55.788;37.572;2022-12-01T03:29:02;101655.78;;;-8.07;100.00
23643;BME280;11998;55.788;37.572;2022-12-01T03:30:06;101656.84;;;-8.05;100.00
23643;BME280;11998;55.788;37.572;2022-12-01T03:31:13;101655.06;;;-8.06;100.00
23643;BME280;11998;55.788;37.572;2022-12-01T03:32:24;101657.09;;;-8.02;100.00
23643;BME280;11998;55.788;37.572;2022-12-01T03:33:31;101651.72;;;-8.05;100.00
23643;BME280;11998;55.788;37.572;2022-12-01T03:34:55;101642.59;;;-8.01;100.00
23643;BME280;11998;55.788;37.572;2022-12-01T03:36:18;101643.09;;;-8.05;100.00
23643;BME280;11998;55.788;37.572;2022-12-01T03:37:26;101648.97;;;-8.06;100.00
23643;BME280;11998;55.788;37.572;2022-12-01T03:38:32;101646.28;;;-8.08;100.00
23643;BME280;11998;55.788;37.572;2022-12-01T03:39:37;101642.41;;;-8.13;100.00
23643;BME280;11998;55.788;37.572;2022-12-01T03:40:40;101648.38;;;-8.04;100.00
23643;BME280;11998;55.788;37.572;2022-12-01T03:41:45;101647.06;;;-7.99;100.00
23643;BME280;11998;55.788;37.572;2022-12-01T03:43:18;101645.53;;;-7.96;100.00
23643;BME280;11998;55.788;37.572;2022-12-01T03:44:24;101645.53;;;-7.96;100.00
23643;BME280;11998;55.788;37.572;2022-12-01T03:45:31;101646.81;;;-8.02;100.00
23643;BME280;11998;55.788;37.572;2022-12-01T03:47:49;101650.41;;;-8.00;100.00
23643;BME280;11998;55.788;37.572;2022-12-01T03:48:50;101647.34;;;-8.06;100.00
23643;BME280;11998;55.788;37.572;2022-12-01T03:49:54;101650.41;;;-8.00;100.00
23643;BME280;11998;55.788;37.572;2022-12-01T03:52:30;101650.41;;;-8.00;100.00
23643;BME280;11998;55.788;37.572;2022-12-01T03:53:48;101649.63;;;-8.09;100.00
23643;BME280;11998;55.788;37.572;2022-12-01T03:56:05;101653.22;;;-8.07;100.00
23643;BME280;11998;55.788;37.572;2022-12-01T03:57:09;101654.28;;;-8.05;100.00
23643;BME280;11998;55.788;37.572;2022-12-01T03:58:17;101653.09;;;-8.08;100.00
23643;BME280;11998;55.788;37.572;2022-12-01T03:59:21;101657.63;;;-8.06;100.00
23643;BME280;11998;55.788;37.572;2022-12-01T04:00:23;101653.84;;;-8.09;100.00
23643;BME280;11998;55.788;37.572;2022-12-01T04:01:24;101658.88;;;-8.11;100.00
23643;BME280;11998;55.788;37.572;2022-12-01T04:02:27;101657.84;;;-8.13;100.00
23643;BME280;11998;55.788;37.572;2022-12-01T04:03:28;101649.75;;;-8.17;100.00
23643;BME280;11998;55.788;37.572;2022-12-01T04:04:28;101657.94;;;-8.21;100.00
23643;BME280;11998;55.788;37.572;2022-12-01T04:05:30;101657.03;;;-8.22;100.00
23643;BME280;11998;55.788;37.572;2022-12-01T04:06:32;101649.81;;;-8.26;100.00
23643;BME280;11998;55.788;37.572;2022-12-01T04:07:32;101653.44;;;-8.24;100.00
23643;BME280;11998;55.788;37.572;2022-12-01T04:08:33;101654.31;;;-8.23;100.00
23643;BME280;11998;55.788;37.572;2022-12-01T04:09:36;101655.50;;;-8.20;100.00
23643;BME280;11998;55.788;37.572;2022-12-01T04:10:36;101647.53;;;-8.23;100.00
23643;BME280;11998;55.788;37.572;2022-12-01T04:11:37;101645.06;;;-8.21;100.00
23643;BME280;11998;55.788;37.572;2022-12-01T04:12:56;101644.59;;;-8.17;100.00
23643;BME280;11998;55.788;37.572;2022-12-01T04:13:58;101646.53;;;-8.15;100.00
23643;BME280;11998;55.788;37.572;2022-12-01T04:15:03;101657.28;;;-8.19;100.00
23643;BME280;11998;55.788;37.572;2022-12-01T04:16:04;101650.63;;;-8.17;100.00
23643;BME280;11998;55.788;37.572;2022-12-01T04:17:04;101652.44;;;-8.16;100.00
23643;BME280;11998;55.788;37.572;2022-12-01T04:18:05;101654.25;;;-8.15;100.00
23643;BME280;11998;55.788;37.572;2022-12-01T04:19:06;101658.09;;;-8.10;100.00
23643;BME280;11998;55.788;37.572;2022-12-01T04:20:06;101650.91;;;-8.14;100.00
23643;BME280;11998;55.788;37.572;2022-12-01T04:21:07;101649.88;;;-8.16;100.00
23643;BME280;11998;55.788;37.572;2022-12-01T04:22:08;101655.50;;;-8.20;100.00
23643;BME280;11998;55.788;37.572;2022-12-01T04:23:08;101651.41;;;-8.18;100.00
23643;BME280;11998;55.788;37.572;2022-12-01T04:24:10;101653.09;;;-8.18;100.00
23643;BME280;11998;55.788;37.572;2022-12-01T04:25:11;101653.97;;;-8.18;100.00
23643;BME280;11998;55.788;37.572;2022-12-01T04:26:11;101655.22;;;-8.23;100.00
23643;BME280;11998;55.788;37.572;2022-12-01T04:27:12;101645.97;;;-8.21;100.00
23643;BME280;11998;55.788;37.572;2022-12-01T04:28:13;101658.22;;;-8.18;100.00
23643;BME280;11998;55.788;37.572;2022-12-01T04:29:13;101649.75;;;-8.17;100.00
23643;BME280;11998;55.788;37.572;2022-12-01T04:30:14;101660.28;;;-8.14;100.00
23643;BME280;11998;55.788;37.572;2022-12-01T04:31:14;101656.38;;;-8.19;100.00
23643;BME280;11998;55.788;37.572;2022-12-01T04:32:15;101663.06;;;-8.21;100.00
23643;BME280;11998;55.788;37.572;2022-12-01T04:33:15;101653.69;;;-8.21;100.00
23643;BME280;11998;55.788;37.572;2022-12-01T04:34:16;101664.25;;;-8.18;100.00
23643;BME280;11998;55.788;37.572;2022-12-01T04:35:16;101659.38;;;-8.15;100.00
23643;BME280;11998;55.788;37.572;2022-12-01T04:36:17;101660.28;;;-8.14;100.00
23643;BME280;11998;55.788;37.572;2022-12-01T04:37:17;101654.09;;;-8.16;100.00
23643;BME280;11998;55.788;37.572;2022-12-01T04:38:18;101656.94;;;-8.13;100.00
23643;BME280;11998;55.788;37.572;2022-12-01T04:39:19;101661.19;;;-8.14;100.00
23643;BME280;11998;55.788;37.572;2022-12-01T04:40:19;101657.59;;;-8.16;100.00
23643;BME280;11998;55.788;37.572;2022-12-01T04:41:20;101664.53;;;-8.15;100.00
23643;BME280;11998;55.788;37.572;2022-12-01T04:42:21;101666.06;;;-8.17;100.00
23643;BME280;11998;55.788;37.572;2022-12-01T04:43:21;101661.44;;;-8.11;100.00
23643;BME280;11998;55.788;37.572;2022-12-01T04:44:22;101655.50;;;-8.20;100.00
23643;BME280;11998;55.788;37.572;2022-12-01T04:45:22;101655.78;;;-8.17;100.00
23643;BME280;11998;55.788;37.572;2022-12-01T04:46:23;101652.91;;;-8.20;100.00
23643;BME280;11998;55.788;37.572;2022-12-01T04:47:24;101649.75;;;-8.17;100.00
23643;BME280;11998;55.788;37.572;2022-12-01T04:48:24;101645.75;;;-8.14;100.00
23643;BME280;11998;55.788;37.572;2022-12-01T04:49:25;101653.22;;;-8.07;100.00
23643;BME280;11998;55.788;37.572;2022-12-01T04:50:26;101653.50;;;-8.04;100.00
23643;BME280;11998;55.788;37.572;2022-12-01T04:51:26;101656.31;;;-8.11;100.00
23643;BME280;11998;55.788;37.572;2022-12-01T04:52:27;101654.25;;;-8.15;100.00
23643;BME280;11998;55.788;37.572;2022-12-01T04:53:28;101649.34;;;-8.12;100.00
23643;BME280;11998;55.788;37.572;2022-12-01T04:54:28;101654.75;;;-8.09;100.00
23643;BME280;11998;55.788;37.572;2022-12-01T04:55:29;101648.84;;;-8.08;100.00
23643;BME280;11998;55.788;37.572;2022-12-01T04:56:30;101653.75;;;-8.01;100.00
23643;BME280;11998;55.788;37.572;2022-12-01T04:57:30;101650.41;;;-8.00;100.00
23643;BME280;11998;55.788;37.572;2022-12-01T04:58:32;101657.63;;;-7.95;100.00
23643;BME280;11998;55.788;37.572;2022-12-01T04:59:33;101653.38;;;-7.95;100.00
23643;BME280;11998;55.788;37.572;2022-12-01T05:00:33;101657.13;;;-7.91;100.00
23643;BME280;11998;55.788;37.572;2022-12-01T05:01:34;101657.91;;;-7.92;100.00
23643;BME280;11998;55.788;37.572;2022-12-01T05:02:34;101659.41;;;-7.94;100.00
23643;BME280;11998;55.788;37.572;2022-12-01T05:03:36;101662.50;;;-7.99;100.00
23643;BME280;11998;55.788;37.572;2022-12-01T05:04:37;101664.69;;;-8.03;100.00
23643;BME280;11998;55.788;37.572;2022-12-01T05:05:40;101664.03;;;-8.01;100.00
23643;BME280;11998;55.788;37.572;2022-12-01T05:06:41;101660.19;;;-8.06;100.00
23643;BME280;11998;55.788;37.572;2022-12-01T05:07:42;101656.56;;;-8.08;100.00
23643;BME280;11998;55.788;37.572;2022-12-01T05:08:43;101656.22;;;-8.02;100.00
23643;BME280;11998;55.788;37.572;2022-12-01T05:09:44;101658.00;;;-8.01;100.00
23643;BME280;11998;55.788;37.572;2022-12-01T05:10:44;101660.72;;;-8.00;100.00
23643;BME280;11998;55.788;37.572;2022-12-01T05:11:44;101668.56;;;-7.98;100.00
23643;BME280;11998;55.788;37.572;2022-12-01T05:12:45;101666.88;;;-7.97;100.00
23643;BME280;11998;55.788;37.572;2022-12-01T05:13:47;101670.25;;;-7.88;100.00
23643;BME280;11998;55.788;37.572;2022-12-01T05:14:48;101667.94;;;-7.85;100.00
23643;BME280;11998;55.788;37.572;2022-12-01T05:15:48;101665.25;;;-7.87;100.00
23643;BME280;11998;55.788;37.572;2022-12-01T05:16:49;101670.78;;;-7.82;100.00
23643;BME280;11998;55.788;37.572;2022-12-01T05:17:49;101671.06;;;-7.79;100.00
23643;BME280;11998;55.788;37.572;2022-12-01T05:18:53;101667.97;;;-7.75;100.00
23643;BME280;11998;55.788;37.572;2022-12-01T05:20:21;101665.91;;;-7.79;100.00
23643;BME280;11998;55.788;37.572;2022-12-01T05:21:42;101669.25;;;-7.80;100.00
23643;BME280;11998;55.788;37.572;2022-12-01T05:22:43;101669.50;;;-7.77;100.00
23643;BME280;11998;55.788;37.572;2022-12-01T05:23:43;101676.72;;;-7.73;100.00
23643;BME280;11998;55.788;37.572;2022-12-01T05:24:44;101672.72;;;-7.70;100.00
23643;BME280;11998;55.788;37.572;2022-12-01T05:25:45;101672.59;;;-7.71;100.00
23643;BME280;11998;55.788;37.572;2022-12-01T05:26:45;101675.81;;;-7.74;100.00
23643;BME280;11998;55.788;37.572;2022-12-01T05:27:46;101669.78;;;-7.74;100.00
23643;BME280;11998;55.788;37.572;2022-12-01T05:28:46;101674.56;;;-7.68;100.00
23643;BME280;11998;55.788;37.572;2022-12-01T05:29:47;101670.16;;;-7.70;100.00
23643;BME280;11998;55.788;37.572;2022-12-01T05:30:48;101675.72;;;-7.65;100.00
23643;BME280;11998;55.788;37.572;2022-12-01T05:31:48;101680.84;;;-7.65;100.00
23643;BME280;11998;55.788;37.572;2022-12-01T05:32:49;101670.31;;;-7.68;100.00
23643;BME280;11998;55.788;37.572;2022-12-01T05:33:49;101676.97;;;-7.70;100.00
23643;BME280;11998;55.788;37.572;2022-12-01T05:34:50;101678.25;;;-7.75;100.00
23643;BME280;11998;55.788;37.572;2022-12-01T05:35:50;101667.84;;;-7.77;100.00
23643;BME280;11998;55.788;37.572;2022-12-01T05:36:51;101668.63;;;-7.78;100.00
23643;BME280;11998;55.788;37.572;2022-12-01T05:37:51;101667.97;;;-7.75;100.00
23643;BME280;11998;55.788;37.572;2022-12-01T05:38:52;101669.78;;;-7.74;100.00
23643;BME280;11998;55.788;37.572;2022-12-01T05:39:53;101668.22;;;-7.72;100.00
23643;BME280;11998;55.788;37.572;2022-12-01T05:40:54;101669.78;;;-7.74;100.00
23643;BME280;11998;55.788;37.572;2022-12-01T05:41:55;101666.41;;;-7.73;100.00
23643;BME280;11998;55.788;37.572;2022-12-01T05:42:57;101677.22;;;-7.77;100.00
23643;BME280;11998;55.788;37.572;2022-12-01T05:43:57;101677.47;;;-7.74;100.00
23643;BME280;11998;55.788;37.572;2022-12-01T05:44:58;101678.75;;;-7.69;100.00
23643;BME280;11998;55.788;37.572;2022-12-01T05:45:59;101676.97;;;-7.70;100.00
23643;BME280;11998;55.788;37.572;2022-12-01T05:46:59;101673.13;;;-7.75;100.00
23643;BME280;11998;55.788;37.572;2022-12-01T05:48:00;101678.03;;;-7.68;100.00
23643;BME280;11998;55.788;37.572;2022-12-01T05:49:01;101679.06;;;-7.66;100.00
23643;BME280;11998;55.788;37.572;2022-12-01T05:50:02;101679.97;;;-7.65;100.00
23643;BME280;11998;55.788;37.572;2022-12-01T05:51:10;101687.25;;;-7.70;100.00
23643;BME280;11998;55.788;37.572;2022-12-01T05:52:11;101685.75;;;-7.68;100.00
23643;BME280;11998;55.788;37.572;2022-12-01T05:53:11;101684.84;;;-7.68;100.00
23643;BME280;11998;55.788;37.572;2022-12-01T05:54:12;101684.97;;;-7.67;100.00
23643;BME280;11998;55.788;37.572;2022-12-01T05:55:13;101684.69;;;-7.70;100.00
23643;BME280;11998;55.788;37.572;2022-12-01T05:56:13;101692.81;;;-7.65;100.00
23643;BME280;11998;55.788;37.572;2022-12-01T05:57:14;101691.41;;;-7.62;100.00